Flight Track Log - Related Links

Times and Time Zones

All times are in EDT time to prevent confusion due to time zone crossing. See the SWA157 flight status page for this flight to view local times or setup timezone preferences in your user account.

Time Position Orientation Groundspeed Altitude Reporting Facility
EDT Latitude Longitude Course Direction KTS MPH feet Rate Location/Type
Sun 10:03:05 AM 41.7333 -87.7333 283° West 193 222 3,300  Level Chicago TRACON
Sun 10:04:06 AM 41.7000 -87.7833 228° Southwest 239 275 4,000 440 Climbing Chicago TRACON
Sun 10:04:54 AM 41.7167 -87.8500 289° West 236 272 4,100 56 Climbing Chicago TRACON
Sun 10:05:54 AM 41.7500 -87.9333 298° West 266 306 4,100 304 Level Chicago TRACON
Sun 10:06:13 AM 41.7508 -87.9742 272° West 251 289 4,500 2,550 Climbing Chicago Center
Sun 10:07:14 AM 41.7575 -88.0692 275° West 266 306 7,500 2,976 Climbing Chicago Center
Sun 10:08:00 AM 41.9231 -88.6050 283° West  Level FlightAware Approximate
Sun 10:08:16 AM 41.7792 -88.1550 289° West 266 306 10,600  Level Chicago Center
Sun 10:09:17 AM 41.7961 -88.2503 283° West 285 328 12,700 2,390 Climbing Chicago Center
Sun 10:10:19 AM 41.7903 -88.3531 266° West 280 322 15,500 2,634 Climbing Chicago Center
Sun 10:11:20 AM 41.7694 -88.4572 255° West 291 335 18,100 2,390 Climbing Chicago Center
Sun 10:12:22 AM 41.7456 -88.5842 256° West 296 341 20,400 2,032 Climbing Chicago Center
Sun 10:13:24 AM 41.7242 -88.6939 255° West 301 346 22,300 1,756 Climbing Chicago Center
Sun 10:14:25 AM 41.7083 -88.8094 260° West 317 365 24,000 1,659 Climbing Chicago Center
Sun 10:15:27 AM 41.7111 -88.9333 272° West 333 383 25,700 1,742 Climbing Chicago Center
Sun 10:16:29 AM 41.7136 -89.0581 272° West 336 387 27,600 1,756 Climbing Chicago Center
Sun 10:17:30 AM 41.7178 -89.1803 273° West 333 383 29,300 1,268 Climbing Chicago Center
Sun 10:18:32 AM 41.7236 -89.3297 273° West 338 389 30,200 726 Climbing Chicago Center
Sun 10:19:34 AM 41.7083 -89.4614 261° West 362 417 30,800 585 Climbing Chicago Center
Sun 10:20:35 AM 41.6908 -89.6042 261° West 378 435 31,400 488 Climbing Chicago Center
Sun 10:21:37 AM 41.6708 -89.7494 260° West 396 456 31,800 532 Climbing Chicago Center
Sun 10:22:39 AM 41.6506 -89.9011 260° West 412 474 32,500 968 Climbing Chicago Center
Sun 10:23:41 AM 41.6297 -90.0550 260° West 420 483 33,800 732 Climbing Chicago Center
Sun 10:24:42 AM 41.6097 -90.2047 260° West 413 475 34,000 98 Climbing Chicago Center
Sun 10:25:44 AM 41.5869 -90.3597 259° West 427 491 34,000  Level Chicago Center
Sun 10:26:46 AM 41.5617 -90.5372 259° West 411 473 34,000  Level Chicago Center
Sun 10:27:48 AM 41.5431 -90.6706 259° West 410 472 34,000  Level Chicago Center
Sun 10:28:49 AM 41.5192 -90.8344 259° West 409 471 34,000  Level Chicago Center
Sun 10:29:51 AM 41.4975 -90.9819 259° West 407 468 34,000  Level Chicago Center
Sun 10:30:53 AM 41.4764 -91.1281 259° West 404 465 34,000  Level Chicago Center
Sun 10:31:55 AM 41.4536 -91.2761 258° West 406 467 34,000 488 Level Chicago Center
Sun 10:32:56 AM 41.4308 -91.4342 259° West 402 463 35,000 488 Climbing Chicago Center
Sun 10:33:58 AM 41.4083 -91.5781 258° West 400 460 35,000 290 Level Chicago Center
Sun 10:35:00 AM 41.3867 -91.7222 259° West 400 460 35,600 484 Climbing Chicago Center
Sun 10:36:02 AM 41.3639 -91.8650 258° West 396 456 36,000 195 Climbing Chicago Center
Sun 10:37:03 AM 41.3372 -92.0411 259° West 404 465 36,000  Level Chicago Center
Sun 10:38:05 AM 41.3136 -92.1867 258° West 406 467 36,000  Level Chicago Center
Sun 10:39:07 AM 41.2903 -92.3339 258° West 408 470 36,000  Level Chicago Center
Sun 10:40:09 AM 41.2639 -92.4956 258° West 408 470 36,000  Level Chicago Center
Sun 10:41:10 AM 41.2403 -92.6408 258° West 407 468 36,000  Level Chicago Center
Sun 10:41:55 AM 41.2214 -92.7608 258° West 411 473 36,000  Level Minneapolis Center
Sun 10:42:56 AM 41.1969 -92.9061 257° West 410 472 36,000  Level Minneapolis Center
Sun 10:43:57 AM 41.1736 -93.0522 258° West 410 472 36,000  Level Minneapolis Center
Sun 10:44:59 AM 41.1492 -93.1956 257° West 406 467 36,000  Level Minneapolis Center
Sun 10:46:00 AM 41.1247 -93.3392 257° West 403 464 36,000  Level Minneapolis Center
Sun 10:47:01 AM 41.1022 -93.4825 258° West 403 464 36,000  Level Minneapolis Center
Sun 10:48:03 AM 41.0764 -93.6278 257° West 406 467 36,000  Level Minneapolis Center
Sun 10:49:04 AM 41.0472 -93.7989 257° West 402 463 36,000  Level Minneapolis Center
Sun 10:50:05 AM 41.0225 -93.9428 257° West 403 464 36,000  Level Minneapolis Center
Sun 10:51:07 AM 40.9953 -94.0900 256° West 408 470 36,000  Level Minneapolis Center
Sun 10:52:08 AM 40.9681 -94.2353 256° West 411 473 36,000  Level Minneapolis Center
Sun 10:53:10 AM 40.9414 -94.3803 256° West 410 472 36,000  Level Minneapolis Center
Sun 10:54:11 AM 40.9178 -94.5217 258° West 405 466 36,000  Level Minneapolis Center
Sun 10:55:24 AM 40.8922 -94.6711 257° West 407 468 36,000  Level Minneapolis Center
Sun 10:56:26 AM 40.8531 -94.8756 256° West 410 472 36,000  Level Minneapolis Center
Sun 10:57:27 AM 40.8269 -95.0222 257° West 411 473 36,000  Level Minneapolis Center
Sun 10:58:29 AM 40.7994 -95.1675 256° West 407 468 36,000  Level Minneapolis Center
Sun 10:59:30 AM 40.7722 -95.3133 256° West 409 471 36,000  Level Minneapolis Center
Sun 11:00:33 AM 40.7447 -95.4611 256° West 411 473 36,000  Level Minneapolis Center
Sun 11:01:34 AM 40.7169 -95.6092 256° West 414 476 36,000  Level Minneapolis Center
Sun 11:02:35 AM 40.6886 -95.7561 256° West 413 475 36,000  Level Minneapolis Center
Sun 11:03:37 AM 40.6603 -95.9053 256° West 416 479 36,000  Level Minneapolis Center
Sun 11:04:38 AM 40.6317 -96.0553 256° West 420 483 36,000  Level Minneapolis Center
Sun 11:05:39 AM 40.6017 -96.2028 255° West 417 480 36,000  Level Minneapolis Center
Sun 11:06:41 AM 40.5739 -96.3489 256° West 414 476 36,000  Level Minneapolis Center
Sun 11:07:42 AM 40.5392 -96.5231 255° West 411 473 36,000  Level Minneapolis Center
Sun 11:08:43 AM 40.5094 -96.6675 255° West 409 471 36,000  Level Minneapolis Center
Sun 11:09:45 AM 40.4817 -96.8122 256° West 408 470 36,000  Level Minneapolis Center
Sun 11:10:46 AM 40.4514 -96.9569 255° West 409 471 36,000  Level Minneapolis Center
Sun 11:11:47 AM 40.4222 -97.1022 255° West 411 473 36,000  Level Minneapolis Center
Sun 11:12:49 AM 40.3914 -97.2475 254° West 413 475 36,000  Level Minneapolis Center
Sun 11:13:50 AM 40.3625 -97.3872 255° West 414 476 36,000  Level Minneapolis Center
Sun 11:14:51 AM 40.3317 -97.5344 255° West 416 479 36,000  Level Minneapolis Center
Sun 11:15:53 AM 40.3019 -97.6803 255° West 415 478 36,000  Level Minneapolis Center
Sun 11:16:54 AM 40.2639 -97.8564 254° West 416 479 36,000  Level Minneapolis Center
Sun 11:17:55 AM 40.2325 -98.0006 254° West 413 475 36,000  Level Minneapolis Center
Sun 11:18:56 AM 40.2081 -98.1164 255° West 412 474 36,000  Level Minneapolis Center
Sun 11:19:58 AM 40.1706 -98.2908 254° West 413 475 36,000  Level Minneapolis Center
Sun 11:20:59 AM 40.1386 -98.4336 254° West 411 473 36,000  Level Minneapolis Center
Sun 11:22:00 AM 40.1072 -98.5783 254° West 411 473 36,000  Level Minneapolis Center
Sun 11:23:02 AM 40.0758 -98.7228 254° West 412 474 36,000  Level Minneapolis Center
Sun 11:24:03 AM 40.0439 -98.8672 254° West 412 474 36,000  Level Minneapolis Center
Sun 11:24:37 AM 40.0247 -98.9528 254° West 408 470 36,000  Level Denver Center
Sun 11:25:39 AM 39.9928 -99.0961 254° West 409 471 36,000  Level Denver Center
Sun 11:26:41 AM 39.9603 -99.2397 254° West 411 473 36,000  Level Denver Center
Sun 11:27:43 AM 39.9278 -99.3817 253° West 409 471 36,000  Level Denver Center
Sun 11:28:45 AM 39.8950 -99.5242 253° West 410 472 36,000  Level Denver Center
Sun 11:29:47 AM 39.8556 -99.6947 253° West 410 472 36,000  Level Denver Center
Sun 11:30:49 AM 39.8219 -99.8394 253° West 414 476 36,000  Level Denver Center
Sun 11:31:50 AM 39.7886 -99.9828 253° West 414 476 36,000  Level Denver Center
Sun 11:32:52 AM 39.7561 -100.1225 253° West 414 476 36,000  Level Denver Center
Sun 11:33:54 AM 39.7183 -100.2828 253° West 415 478 36,000  Level Denver Center
Sun 11:34:56 AM 39.6844 -100.4217 252° West 418 481 36,000  Level Denver Center
Sun 11:35:59 AM 39.6464 -100.5839 253° West 420 483 36,000  Level Denver Center
Sun 11:37:00 AM 39.6133 -100.7206 253° West 417 480 36,000  Level Denver Center
Sun 11:38:02 AM 39.5733 -100.8803 252° West 416 479 36,000  Level Denver Center
Sun 11:39:04 AM 39.5397 -101.0197 253° West 421 484 36,000  Level Denver Center
Sun 11:40:06 AM 39.5069 -101.1572 253° West 420 483 36,000  Level Denver Center
Sun 11:41:08 AM 39.4669 -101.3156 252° West 417 480 36,000  Level Denver Center
Sun 11:42:10 AM 39.4333 -101.4514 252° West 415 478 36,000  Level Denver Center
Sun 11:43:12 AM 39.3936 -101.6092 252° West 412 474 36,000  Level Denver Center
Sun 11:44:13 AM 39.3603 -101.7428 252° West 409 471 36,000  Level Denver Center
Sun 11:45:15 AM 39.3219 -101.8942 252° West 408 470 36,000  Level Denver Center
Sun 11:46:17 AM 39.2889 -102.0244 252° West 401 461 36,000  Level Denver Center
Sun 11:47:19 AM 39.2494 -102.1761 251° West 400 460 36,000  Level Denver Center
Sun 11:48:21 AM 39.2158 -102.3067 252° West 401 461 36,000  Level Denver Center
Sun 11:49:23 AM 39.1761 -102.4589 251° West 405 466 36,000  Level Denver Center
Sun 11:50:25 AM 39.1425 -102.5892 252° West 403 464 36,000  Level Denver Center
Sun 11:51:27 AM 39.1039 -102.7372 251° West 410 472 36,000  Level Denver Center
Sun 11:52:29 AM 39.0681 -102.8694 251° West 408 470 36,000  Level Denver Center
Sun 11:53:31 AM 39.0322 -103.0081 252° West 406 467 36,000  Level Denver Center
Sun 11:54:33 AM 38.9903 -103.1692 252° West 403 464 36,000  Level Denver Center
Sun 11:55:35 AM 38.9525 -103.3064 251° West 403 464 36,000  Level Denver Center
Sun 11:56:37 AM 38.9153 -103.4444 251° West 405 466 36,000  Level Denver Center
Sun 11:57:39 AM 38.8781 -103.5817 251° West 402 463 36,000  Level Denver Center
Sun 11:58:41 AM 38.8411 -103.7167 251° West 404 465 36,000  Level Denver Center
Sun 11:59:43 AM 38.7989 -103.8700 251° West 409 471 36,000  Level Denver Center
Sun 12:00:45 PM 38.7642 -104.0008 251° West 407 468 36,000  Level Denver Center
Sun 12:01:47 PM 38.7272 -104.1342 250° West 406 467 36,000  Level Denver Center
Sun 12:02:49 PM 38.6828 -104.2922 250° West 401 461 36,000  Level Denver Center
Sun 12:03:51 PM 38.6447 -104.4275 250° West 399 459 36,000  Level Denver Center
Sun 12:04:53 PM 38.6072 -104.5597 250° West 394 453 36,000  Level Denver Center
Sun 12:05:55 PM 38.5700 -104.6919 250° West 392 451 36,000  Level Denver Center
Sun 12:06:57 PM 38.5333 -104.8239 250° West 389 448 36,000  Level Denver Center
Sun 12:07:59 PM 38.4950 -104.9544 249° West 388 447 36,000  Level Denver Center
Sun 12:09:01 PM 38.4578 -105.0836 250° West 384 442 36,000  Level Denver Center
Sun 12:10:03 PM 38.4214 -105.2144 250° West 386 444 36,000  Level Denver Center
Sun 12:11:05 PM 38.3772 -105.3631 249° West 383 441 36,000  Level Denver Center
Sun 12:12:07 PM 38.3447 -105.4742 250° West 381 438 36,000  Level Denver Center
Sun 12:13:09 PM 38.3036 -105.6161 250° West 382 440 36,000  Level Denver Center
Sun 12:14:11 PM 38.2678 -105.7381 250° West 385 443 36,000  Level Denver Center
Sun 12:15:13 PM 38.2261 -105.8803 250° West 384 442 36,000  Level Denver Center
Sun 12:16:15 PM 38.1894 -106.0036 249° West 389 448 36,000  Level Denver Center
Sun 12:17:17 PM 38.1464 -106.1478 249° West 392 451 36,000  Level Denver Center
Sun 12:18:19 PM 38.1072 -106.2800 249° West 392 451 36,000  Level Denver Center
Sun 12:19:21 PM 38.0658 -106.4147 249° West 391 450 36,000  Level Denver Center
Sun 12:20:23 PM 38.0256 -106.5472 249° West 391 450 36,000  Level Denver Center
Sun 12:21:25 PM 37.9886 -106.6708 249° West 392 451 36,000  Level Denver Center
Sun 12:22:27 PM 37.9439 -106.8142 248° West 393 452 36,000  Level Denver Center
Sun 12:23:29 PM 37.9067 -106.9372 249° West 391 450 36,000  Level Denver Center
Sun 12:24:31 PM 37.8625 -107.0800 249° West 390 449 36,000  Level Denver Center
Sun 12:25:34 PM 37.8211 -107.2128 249° West 394 453 36,000 576 Level Denver Center
Sun 12:26:36 PM 37.7828 -107.3378 249° West 399 459 37,200 968 Climbing Denver Center
Sun 12:27:38 PM 37.7394 -107.4761 248° West 386 444 38,000 387 Climbing Denver Center
Sun 12:28:40 PM 37.7014 -107.5961 248° West 384 442 38,000  Level Denver Center
Sun 12:29:42 PM 37.6569 -107.7369 248° West 387 445 38,000  Level Denver Center
Sun 12:30:44 PM 37.6192 -107.8561 248° West 384 442 38,000  Level Denver Center
Sun 12:31:46 PM 37.5800 -107.9769 248° West 389 448 38,000  Level Denver Center
Sun 12:32:48 PM 37.5356 -108.1175 248° West 388 447 38,000  Level Denver Center
Sun 12:33:50 PM 37.4969 -108.2375 248° West 386 444 38,000  Level Denver Center
Sun 12:34:52 PM 37.4517 -108.3769 248° West 386 444 38,000  Level Denver Center
Sun 12:35:54 PM 37.4136 -108.4939 248° West 380 437 38,000  Level Denver Center
Sun 12:36:56 PM 37.3692 -108.6300 248° West 378 435 38,000  Level Denver Center
Sun 12:37:58 PM 37.3297 -108.7497 248° West 384 442 38,000  Level Denver Center
Sun 12:39:00 PM 37.2842 -108.8881 248° West 385 443 38,000  Level Denver Center
Sun 12:40:02 PM 37.2444 -109.0078 247° West 388 447 38,000  Level Denver Center
Sun 12:41:04 PM 37.1983 -109.1489 248° West 391 450 38,000  Level Denver Center
Sun 12:42:06 PM 37.1586 -109.2694 248° West 391 450 38,000  Level Denver Center
Sun 12:43:08 PM 37.1103 -109.4097 247° West 393 452 38,000  Level Denver Center
Sun 12:44:10 PM 37.0700 -109.5311 247° West 396 456 38,000  Level Denver Center
Sun 12:45:12 PM 37.0228 -109.6714 247° West 394 453 38,000  Level Denver Center
Sun 12:46:14 PM 36.9819 -109.7911 247° West 391 450 38,000  Level Denver Center
Sun 12:47:16 PM 36.9342 -109.9328 247° West 396 456 38,000  Level Denver Center
Sun 12:48:18 PM 36.8933 -110.0525 247° West 395 455 38,000  Level Denver Center
Sun 12:49:20 PM 36.8528 -110.1736 247° West 395 455 38,000  Level Denver Center
Sun 12:50:22 PM 36.7989 -110.3258 246° West 398 458 38,000  Level Denver Center
Sun 12:51:25 PM 36.7558 -110.4525 247° West 397 457 38,000  Level Denver Center
Sun 12:52:27 PM 36.7147 -110.5761 247° West 391 450 38,000  Level Denver Center
Sun 12:53:29 PM 36.6706 -110.7014 246° West 392 451 38,000  Level Denver Center
Sun 12:54:31 PM 36.6250 -110.8281 246° West 397 457 38,000  Level Denver Center
Sun 12:55:33 PM 36.5806 -110.9542 246° West 399 459 38,000  Level Denver Center
Sun 12:56:35 PM 36.5264 -111.1075 246° West 402 463 38,000  Level Denver Center
Sun 12:57:37 PM 36.4797 -111.2361 246° West 405 466 38,000  Level Denver Center
Sun 12:58:39 PM 36.4342 -111.3653 246° West 408 470 38,000  Level Denver Center
Sun 12:59:43 PM 36.3878 -111.4928 246° West 406 467 38,000  Level Denver Center
Sun 01:00:45 PM 36.3389 -111.6211 245° Southwest 408 470 38,000  Level Denver Center
Sun 01:01:47 PM 36.2822 -111.7739 245° Southwest 408 470 38,000  Level Denver Center
Sun 01:02:49 PM 36.2353 -111.8994 245° Southwest 403 464 38,000  Level Denver Center
Sun 01:03:04 PM 36.2242 -111.9250 242° Southwest 398 458 38,000  Level Los Angeles Center
Sun 01:04:06 PM 36.1803 -112.0375 244° Southwest 397 457 38,000  Level Los Angeles Center
Sun 01:05:08 PM 36.1244 -112.1858 245° Southwest 401 461 38,000  Level Los Angeles Center
Sun 01:06:10 PM 36.0822 -112.2975 245° Southwest 398 458 38,000  Level Los Angeles Center
Sun 01:07:12 PM 36.0267 -112.4461 245° Southwest 396 456 38,000  Level Los Angeles Center
Sun 01:08:14 PM 35.9767 -112.5736 244° Southwest 409 471 38,000  Level Los Angeles Center
Sun 01:09:16 PM 35.9353 -112.6831 245° Southwest 408 470 38,000  Level Los Angeles Center
Sun 01:10:18 PM 35.8769 -112.8342 245° Southwest 411 473 38,000  Level Los Angeles Center
Sun 01:11:20 PM 35.8283 -112.9603 245° Southwest 412 474 38,000  Level Los Angeles Center
Sun 01:12:22 PM 35.7783 -113.0864 244° Southwest 414 476 38,000  Level Los Angeles Center
Sun 01:13:25 PM 35.7297 -113.2122 245° Southwest 413 475 38,000  Level Los Angeles Center
Sun 01:14:27 PM 35.6703 -113.3644 244° Southwest 416 479 38,000  Level Los Angeles Center
Sun 01:15:29 PM 35.6200 -113.4894 244° Southwest 414 476 38,000  Level Los Angeles Center
Sun 01:16:31 PM 35.5708 -113.6164 245° Southwest 415 478 38,000  Level Los Angeles Center
Sun 01:17:33 PM 35.5206 -113.7417 244° Southwest 414 476 38,000  Level Los Angeles Center
Sun 01:18:35 PM 35.4703 -113.8664 244° Southwest 413 475 38,000  Level Los Angeles Center
Sun 01:19:37 PM 35.4111 -114.0131 244° Southwest 414 476 38,000  Level Los Angeles Center
Sun 01:20:39 PM 35.3611 -114.1386 244° Southwest 411 473 38,000  Level Los Angeles Center
Sun 01:21:41 PM 35.3100 -114.2644 244° Southwest 410 472 38,000  Level Los Angeles Center
Sun 01:22:43 PM 35.2592 -114.3894 244° Southwest 409 471 38,000  Level Los Angeles Center
Sun 01:23:45 PM 35.1981 -114.5406 244° Southwest 411 473 38,000  Level Los Angeles Center
Sun 01:24:47 PM 35.1458 -114.6658 243° Southwest 413 475 38,000  Level Los Angeles Center
Sun 01:25:50 PM 35.0939 -114.7931 244° Southwest 416 479 38,000  Level Los Angeles Center
Sun 01:26:52 PM 35.0428 -114.9192 244° Southwest 415 478 38,000  Level Los Angeles Center
Sun 01:27:54 PM 34.9908 -115.0453 243° Southwest 414 476 38,000  Level Los Angeles Center
Sun 01:28:56 PM 34.9389 -115.1692 243° Southwest 410 472 38,000  Level Los Angeles Center
Sun 01:29:58 PM 34.8800 -115.3111 243° Southwest 406 467 38,000 -97 Level Los Angeles Center
Sun 01:31:00 PM 34.8261 -115.4400 243° Southwest 407 468 37,800 -532 Descending Los Angeles Center
Sun 01:32:02 PM 34.7744 -115.5622 243° Southwest 407 468 36,900 -919 Descending Los Angeles Center
Sun 01:33:04 PM 34.7244 -115.6819 243° Southwest 411 473 35,900 -919 Descending Los Angeles Center
Sun 01:34:06 PM 34.6706 -115.8092 243° Southwest 421 484 35,000 -919 Descending Los Angeles Center
Sun 01:35:08 PM 34.6156 -115.9372 242° Southwest 426 490 34,000 -1,016 Descending Los Angeles Center
Sun 01:36:10 PM 34.5506 -116.0894 243° Southwest 425 489 32,900 -1,016 Descending Los Angeles Center
Sun 01:37:12 PM 34.4956 -116.2172 242° Southwest 427 491 31,900 -968 Descending Los Angeles Center
Sun 01:38:14 PM 34.4392 -116.3475 242° Southwest 434 499 30,900 -960 Descending Los Angeles Center
Sun 01:39:17 PM 34.3822 -116.4789 242° Southwest 439 505 29,900 -1,968 Descending Los Angeles Center
Sun 01:40:19 PM 34.3267 -116.6086 243° Southwest 435 501 26,800 -2,516 Descending Los Angeles Center
Sun 01:41:21 PM 34.2711 -116.7364 242° Southwest 431 496 24,700 -2,129 Descending Los Angeles Center
Sun 01:42:23 PM 34.2172 -116.8586 242° Southwest 416 479 22,400 -2,371 Descending Los Angeles Center
Sun 01:43:25 PM 34.1547 -116.9975 241° Southwest 397 457 19,800 -2,129 Descending Los Angeles Center
Sun 01:44:27 PM 34.1083 -117.1083 243° Southwest 380 437 18,000 -871 Descending Los Angeles Center
Sun 01:45:29 PM 34.0611 -117.2117 241° Southwest 364 419 18,000  Level Los Angeles Center
Sun 01:46:31 PM 34.0408 -117.3275 258° West 360 414 18,000 -919 Level Los Angeles Center
Sun 01:47:33 PM 34.0267 -117.4683 263° West 355 409 16,100 -2,516 Descending Los Angeles Center
Sun 01:48:35 PM 34.0264 -117.5867 270° West 353 406 12,800 -2,371 Descending Los Angeles Center
Sun 01:49:37 PM 34.0225 -117.7011 268° West 345 397 11,200 -1,597 Descending Los Angeles Center
Sun 01:50:39 PM 34.0167 -117.8000 266° West 281 323 9,500 -1,869 Descending Southern California TRACON
Sun 01:51:39 PM 34.0000 -117.9000 259° West 288 331 7,400 -1,750 Descending Southern California TRACON
Sun 01:52:39 PM 34.0000 -118.0000 270° West 275 316 6,000 -1,300 Descending Southern California TRACON
Sun 01:53:39 PM 33.9833 -118.0833 256° West 264 304 4,800 -1,190 Descending Southern California TRACON
Sun 01:54:40 PM 33.9833 -118.1667 270° West 252 290 3,600 -962 Descending Southern California TRACON
Sun 01:55:50 PM 33.9683 -118.2447 257° West 224 258 2,700 -818 Descending Los Angeles Center
Sun 01:56:52 PM 33.9628 -118.3047 264° West 197 227 1,800 -871 Descending Los Angeles Center
Sun 01:57:54 PM 33.9575 -118.3561 263° West 176 203 900 -823 Descending Los Angeles Center
Sun 01:58:56 PM 33.9528 -118.4042 263° West 158 182 100 -774 Descending Los Angeles Center
Sun 02:00:00 PM 33.9425 -118.4081 259° West  Level Estimated
Sun 02:07:00 PM 33.9425 -118.4081 259° West  Level Estimated

Login

Don't have an account? Register now (free) for customized features, flight alerts, and more!